Time;durP1;ratioP1;P1;durP2;ratioP2;P2;SDS_P1;SDS_P2;PMS_P1;PMS_P2;Temp;Humidity;BMP_temperature;BMP_pressure;BME280_temperature;BME280_humidity;BME280_pressure;Samples;Min_cycle;Max_cycle;Signal;HPM_P1;HPM_P2
2021/12/05 00:23:18;;;;;;;3.75;1.40;;;;;;;;;;20911091;28;20510;-62
2021/12/05 00:33:44;;;;;;;3.85;1.45;;;;;;;;;;20912304;28;20136;-72
2021/12/05 01:24:52;;;;;;;3.33;1.25;;;;;;;;;;20923046;28;20067;-63
2021/12/05 02:46:58;;;;;;;4.38;1.70;;;;;;;;;;20916051;28;20045;-63
2021/12/05 02:57:02;;;;;;;3.00;1.30;;;;;;;;;;20914662;28;20108;-61
2021/12/05 03:07:08;;;;;;;4.50;1.20;;;;;;;;;;20914416;28;20052;-58
2021/12/05 03:17:13;;;;;;;5.25;1.58;;;;;;;;;;20914452;28;20052;-63
2021/12/05 03:27:23;;;;;;;5.35;1.40;;;;;;;;;;20913384;28;20064;-62
2021/12/05 03:37:31;;;;;;;5.18;1.27;;;;;;;;;;20913063;28;20055;-61
2021/12/05 03:47:38;;;;;;;3.97;1.20;;;;;;;;;;20912465;28;20053;-61
2021/12/05 03:57:53;;;;;;;5.28;1.38;;;;;;;;;;20911862;28;20048;-58
2021/12/05 04:08:11;;;;;;;4.60;1.07;;;;;;;;;;20914370;28;20049;-62
2021/12/05 04:18:21;;;;;;;4.25;1.42;;;;;;;;;;20928309;28;20056;-61
2021/12/05 04:28:28;;;;;;;5.70;1.50;;;;;;;;;;20926115;28;20048;-69
2021/12/05 04:38:31;;;;;;;7.28;2.08;;;;;;;;;;20926264;28;20092;-64
2021/12/05 04:48:46;;;;;;;4.22;1.27;;;;;;;;;;20925268;28;20053;-69
2021/12/05 04:58:54;;;;;;;3.75;1.27;;;;;;;;;;20926222;28;20128;-70
2021/12/05 05:08:58;;;;;;;4.77;1.53;;;;;;;;;;20923900;28;20402;-58
2021/12/05 05:19:08;;;;;;;5.28;1.77;;;;;;;;;;20922426;28;20071;-60
2021/12/05 05:49:58;;;;;;;9.25;2.90;;;;;;;;;;20919989;28;20461;-59
2021/12/05 06:00:29;;;;;;;8.15;4.47;;;;;;;;;;20918664;28;20088;-57
2021/12/05 06:10:35;;;;;;;4.95;1.52;;;;;;;;;;20920185;28;20049;-60
2021/12/05 06:20:42;;;;;;;7.00;1.90;;;;;;;;;;20918264;28;20060;-59
2021/12/05 06:51:31;;;;;;;5.13;1.83;;;;;;;;;;20917198;28;20131;-63
2021/12/05 07:01:35;;;;;;;3.50;1.30;;;;;;;;;;20915656;28;20091;-59
2021/12/05 07:22:27;;;;;;;5.38;1.65;;;;;;;;;;20913456;28;20119;-58
2021/12/05 07:43:07;;;;;;;4.70;1.50;;;;;;;;;;20911307;28;20135;-59
2021/12/05 07:53:28;;;;;;;4.32;1.73;;;;;;;;;;20912017;28;20437;-59
2021/12/05 08:24:30;;;;;;;35.85;5.97;;;;;;;;;;20910970;28;20045;-62
2021/12/05 10:39:00;;;;;;;5.95;2.22;;;;;;;;;;20914139;28;20045;-59
2021/12/05 10:49:06;;;;;;;4.55;2.10;;;;;;;;;;20911412;28;20175;-59
2021/12/05 10:59:13;;;;;;;5.83;1.60;;;;;;;;;;20913642;28;20451;-60
2021/12/05 11:09:25;;;;;;;3.13;1.02;;;;;;;;;;20914432;28;20656;-54
2021/12/05 11:19:39;;;;;;;2.72;0.75;;;;;;;;;;20912266;28;20131;-56
2021/12/05 11:29:48;;;;;;;2.33;0.73;;;;;;;;;;20912933;28;20085;-56
2021/12/05 11:40:02;;;;;;;2.78;0.60;;;;;;;;;;20907373;28;20091;-55
2021/12/05 11:50:06;;;;;;;1.38;0.70;;;;;;;;;;20911058;28;20053;-58
2021/12/05 12:00:15;;;;;;;1.25;0.73;;;;;;;;;;20909619;28;20064;-56
2021/12/05 12:10:43;;;;;;;1.88;0.50;;;;;;;;;;20911079;28;20049;-57
2021/12/05 12:20:47;;;;;;;3.05;1.20;;;;;;;;;;20911085;28;20053;-59
2021/12/05 12:30:55;;;;;;;2.00;0.80;;;;;;;;;;20914400;28;20048;-60
2021/12/05 12:41:04;;;;;;;1.73;0.77;;;;;;;;;;20925600;28;20059;-61
2021/12/05 12:51:08;;;;;;;1.20;0.65;;;;;;;;;;20924828;28;20498;-60
2021/12/05 13:01:17;;;;;;;3.10;1.85;;;;;;;;;;20924290;28;20076;-61
2021/12/05 13:11:22;;;;;;;5.88;1.25;;;;;;;;;;20923767;28;20102;-60
2021/12/05 13:21:31;;;;;;;2.10;0.88;;;;;;;;;;20922584;28;20061;-61
2021/12/05 13:31:37;;;;;;;2.70;0.70;;;;;;;;;;20923008;28;20513;-60
2021/12/05 13:41:42;;;;;;;2.95;0.90;;;;;;;;;;20922042;28;20080;-65
2021/12/05 13:51:46;;;;;;;2.70;0.70;;;;;;;;;;20922598;28;20052;-61
2021/12/05 14:01:50;;;;;;;2.87;0.90;;;;;;;;;;20920322;28;20048;-60
2021/12/05 14:12:13;;;;;;;2.78;0.90;;;;;;;;;;20919640;28;20061;-61
2021/12/05 14:22:18;;;;;;;4.78;0.80;;;;;;;;;;20918768;28;20395;-61
2021/12/05 14:32:25;;;;;;;2.80;1.10;;;;;;;;;;20917131;28;20051;-66
2021/12/05 14:42:30;;;;;;;2.05;0.88;;;;;;;;;;20917717;28;20106;-62
2021/12/05 14:52:36;;;;;;;2.53;1.00;;;;;;;;;;20915496;28;20056;-66
2021/12/05 15:02:39;;;;;;;4.55;1.00;;;;;;;;;;20913522;28;20136;-60
2021/12/05 15:12:42;;;;;;;2.38;0.85;;;;;;;;;;20919546;28;20091;-69
2021/12/05 15:22:48;;;;;;;2.58;0.80;;;;;;;;;;20913017;28;20056;-67
2021/12/05 15:32:58;;;;;;;5.07;1.20;;;;;;;;;;20913137;28;20053;-69
2021/12/05 15:43:07;;;;;;;10.10;6.35;;;;;;;;;;20912187;28;20392;-67
2021/12/05 15:53:11;;;;;;;9.23;4.93;;;;;;;;;;20911731;28;20545;-63
2021/12/05 16:03:17;;;;;;;3.72;1.50;;;;;;;;;;20912654;28;20501;-69
2021/12/05 16:13:22;;;;;;;1.77;0.73;;;;;;;;;;20929149;28;20502;-68
2021/12/05 16:23:29;;;;;;;4.45;1.17;;;;;;;;;;20929277;28;20379;-70
2021/12/05 16:33:34;;;;;;;3.20;0.88;;;;;;;;;;20927806;28;20465;-61
2021/12/05 16:43:58;;;;;;;3.60;1.02;;;;;;;;;;20926638;28;20056;-70
2021/12/05 16:54:33;;;;;;;3.13;1.02;;;;;;;;;;20925222;28;20057;-70
2021/12/05 17:04:57;;;;;;;2.40;0.85;;;;;;;;;;20916391;28;20075;-70
2021/12/05 17:15:14;;;;;;;3.97;1.07;;;;;;;;;;20916329;28;20080;-61
2021/12/05 17:25:47;;;;;;;4.15;2.10;;;;;;;;;;20914627;28;20064;-61
2021/12/05 17:35:52;;;;;;;5.72;2.85;;;;;;;;;;20637905;28;20050;-70
2021/12/05 17:45:56;;;;;;;2.63;1.40;;;;;;;;;;20602809;28;20058;-66
2021/12/05 17:56:04;;;;;;;4.18;1.27;;;;;;;;;;20586963;28;20061;-69
2021/12/05 18:06:07;;;;;;;5.85;1.55;;;;;;;;;;20681304;28;20489;-69
2021/12/05 18:16:16;;;;;;;3.65;1.20;;;;;;;;;;20920339;28;20137;-70
2021/12/05 18:26:18;;;;;;;5.03;1.83;;;;;;;;;;20918486;28;20053;-72
2021/12/05 18:36:20;;;;;;;19.05;9.77;;;;;;;;;;20918159;28;20056;-70
2021/12/05 18:46:21;;;;;;;5.13;2.50;;;;;;;;;;20917924;28;20064;-71
2021/12/05 18:56:25;;;;;;;7.18;3.22;;;;;;;;;;20916937;28;20088;-61
2021/12/05 19:06:33;;;;;;;6.13;2.25;;;;;;;;;;20931372;28;20049;-70
2021/12/05 19:16:34;;;;;;;4.25;1.40;;;;;;;;;;20916834;28;20052;-62
2021/12/05 19:26:36;;;;;;;3.65;1.40;;;;;;;;;;20914892;28;20502;-69
2021/12/05 19:36:38;;;;;;;4.47;2.13;;;;;;;;;;20916207;28;20053;-69
2021/12/05 19:46:40;;;;;;;6.15;2.40;;;;;;;;;;20912028;28;20053;-68
2021/12/05 19:56:43;;;;;;;3.92;1.80;;;;;;;;;;20912031;28;20132;-62
2021/12/05 20:06:46;;;;;;;2.78;0.98;;;;;;;;;;20911682;28;20078;-61
2021/12/05 20:16:48;;;;;;;1.60;0.90;;;;;;;;;;20911196;28;20053;-61
2021/12/05 20:26:50;;;;;;;2.00;0.90;;;;;;;;;;20911387;28;20045;-60
2021/12/05 20:36:54;;;;;;;2.85;1.10;;;;;;;;;;20910988;28;20044;-59
2021/12/05 20:46:57;;;;;;;3.55;1.05;;;;;;;;;;20910048;28;20410;-60
2021/12/05 20:56:59;;;;;;;5.22;1.48;;;;;;;;;;20922188;28;20139;-61
2021/12/05 21:07:02;;;;;;;4.32;1.50;;;;;;;;;;20924828;28;20418;-61
2021/12/05 21:17:04;;;;;;;3.92;1.05;;;;;;;;;;20923840;28;20053;-62
2021/12/05 21:27:07;;;;;;;2.83;1.20;;;;;;;;;;20924224;28;20045;-60
2021/12/05 21:37:10;;;;;;;3.28;1.17;;;;;;;;;;20922965;28;20136;-61
2021/12/05 21:47:12;;;;;;;3.38;1.10;;;;;;;;;;20922459;28;20045;-60
2021/12/05 21:57:14;;;;;;;3.03;1.02;;;;;;;;;;20925151;28;20037;-72
2021/12/05 22:07:17;;;;;;;3.80;1.70;;;;;;;;;;20930978;28;20479;-60
2021/12/05 22:17:19;;;;;;;1.45;0.82;;;;;;;;;;20919369;28;20052;-61
2021/12/05 22:27:21;;;;;;;1.67;0.80;;;;;;;;;;20919336;28;20088;-63
2021/12/05 22:37:25;;;;;;;3.38;1.98;;;;;;;;;;20916638;28;20052;-61
2021/12/05 22:47:27;;;;;;;4.18;1.50;;;;;;;;;;20917199;28;20052;-61
2021/12/05 22:57:29;;;;;;;1.92;1.00;;;;;;;;;;20916715;28;20052;-59
2021/12/05 23:07:31;;;;;;;0.90;0.60;;;;;;;;;;20917311;28;20049;-69
2021/12/05 23:17:33;;;;;;;1.95;0.73;;;;;;;;;;20914197;28;20053;-61
2021/12/05 23:27:35;;;;;;;9.57;4.63;;;;;;;;;;20914970;28;20415;-65
2021/12/05 23:37:38;;;;;;;1.45;0.80;;;;;;;;;;20913881;28;20135;-60
2021/12/05 23:47:43;;;;;;;3.15;0.88;;;;;;;;;;20912857;28;20053;-61
2021/12/05 23:57:46;;;;;;;2.20;1.10;;;;;;;;;;20913882;28;20049;-60
